sensor_id;sensor_type;location;lat;lon;timestamp;P1;durP1;ratioP1;P2;durP2;ratioP2
20511;SDS011;10414;52.074;5.126;2022-11-12T00:02:02;25.15;;;14.55;;
20511;SDS011;10414;52.074;5.126;2022-11-12T00:04:29;21.38;;;14.35;;
20511;SDS011;10414;52.074;5.126;2022-11-12T00:06:56;24.33;;;14.50;;
20511;SDS011;10414;52.074;5.126;2022-11-12T00:09:23;23.85;;;13.52;;
20511;SDS011;10414;52.074;5.126;2022-11-12T00:11:50;21.80;;;13.75;;
20511;SDS011;10414;52.074;5.126;2022-11-12T00:14:17;22.70;;;14.30;;
20511;SDS011;10414;52.074;5.126;2022-11-12T00:16:44;24.08;;;14.02;;
20511;SDS011;10414;52.074;5.126;2022-11-12T00:19:12;25.13;;;14.15;;
20511;SDS011;10414;52.074;5.126;2022-11-12T00:21:39;27.45;;;14.68;;
20511;SDS011;10414;52.074;5.126;2022-11-12T00:24:06;25.58;;;14.27;;
20511;SDS011;10414;52.074;5.126;2022-11-12T00:26:33;25.13;;;14.23;;
20511;SDS011;10414;52.074;5.126;2022-11-12T00:29:00;22.48;;;13.18;;
20511;SDS011;10414;52.074;5.126;2022-11-12T00:31:27;23.60;;;13.55;;
20511;SDS011;10414;52.074;5.126;2022-11-12T00:33:53;26.70;;;14.48;;
20511;SDS011;10414;52.074;5.126;2022-11-12T00:36:22;22.88;;;13.88;;
20511;SDS011;10414;52.074;5.126;2022-11-12T00:38:49;22.67;;;13.88;;
20511;SDS011;10414;52.074;5.126;2022-11-12T00:41:15;22.95;;;13.48;;
20511;SDS011;10414;52.074;5.126;2022-11-12T00:43:42;25.33;;;14.82;;
20511;SDS011;10414;52.074;5.126;2022-11-12T00:46:09;24.05;;;12.57;;
20511;SDS011;10414;52.074;5.126;2022-11-12T00:48:36;22.15;;;12.88;;
20511;SDS011;10414;52.074;5.126;2022-11-12T00:51:04;22.17;;;12.52;;
20511;SDS011;10414;52.074;5.126;2022-11-12T00:53:32;21.48;;;12.05;;
20511;SDS011;10414;52.074;5.126;2022-11-12T00:56:00;22.63;;;12.50;;
20511;SDS011;10414;52.074;5.126;2022-11-12T00:58:28;18.65;;;12.15;;
20511;SDS011;10414;52.074;5.126;2022-11-12T01:00:55;21.45;;;12.15;;
20511;SDS011;10414;52.074;5.126;2022-11-12T01:03:22;18.88;;;11.48;;
20511;SDS011;10414;52.074;5.126;2022-11-12T01:05:49;18.08;;;11.05;;
20511;SDS011;10414;52.074;5.126;2022-11-12T01:08:16;20.38;;;11.25;;
20511;SDS011;10414;52.074;5.126;2022-11-12T01:10:44;18.67;;;10.95;;
20511;SDS011;10414;52.074;5.126;2022-11-12T01:13:11;21.45;;;11.65;;
20511;SDS011;10414;52.074;5.126;2022-11-12T01:15:41;21.30;;;12.25;;
20511;SDS011;10414;52.074;5.126;2022-11-12T01:18:08;22.40;;;12.38;;
20511;SDS011;10414;52.074;5.126;2022-11-12T01:20:36;20.23;;;11.85;;
20511;SDS011;10414;52.074;5.126;2022-11-12T01:23:03;24.25;;;12.82;;
20511;SDS011;10414;52.074;5.126;2022-11-12T01:25:30;21.70;;;12.73;;
20511;SDS011;10414;52.074;5.126;2022-11-12T01:27:58;26.17;;;13.32;;
20511;SDS011;10414;52.074;5.126;2022-11-12T01:30:25;24.85;;;14.60;;
20511;SDS011;10414;52.074;5.126;2022-11-12T01:32:52;24.42;;;13.93;;
20511;SDS011;10414;52.074;5.126;2022-11-12T01:35:19;24.52;;;13.88;;
20511;SDS011;10414;52.074;5.126;2022-11-12T01:37:46;23.65;;;13.05;;
20511;SDS011;10414;52.074;5.126;2022-11-12T01:40:13;29.13;;;14.02;;
20511;SDS011;10414;52.074;5.126;2022-11-12T01:42:40;24.70;;;12.85;;
20511;SDS011;10414;52.074;5.126;2022-11-12T01:45:12;24.17;;;13.82;;
20511;SDS011;10414;52.074;5.126;2022-11-12T01:47:40;21.15;;;12.98;;
20511;SDS011;10414;52.074;5.126;2022-11-12T01:50:13;22.27;;;12.82;;
20511;SDS011;10414;52.074;5.126;2022-11-12T01:52:42;23.25;;;14.00;;
20511;SDS011;10414;52.074;5.126;2022-11-12T01:55:13;24.58;;;13.50;;
20511;SDS011;10414;52.074;5.126;2022-11-12T01:57:44;24.63;;;13.48;;
20511;SDS011;10414;52.074;5.126;2022-11-12T02:00:16;24.52;;;13.68;;
20511;SDS011;10414;52.074;5.126;2022-11-12T02:02:44;19.80;;;12.77;;
20511;SDS011;10414;52.074;5.126;2022-11-12T02:05:14;21.23;;;12.50;;
20511;SDS011;10414;52.074;5.126;2022-11-12T02:07:42;20.23;;;12.27;;
20511;SDS011;10414;52.074;5.126;2022-11-12T02:10:11;21.65;;;13.65;;
20511;SDS011;10414;52.074;5.126;2022-11-12T02:12:39;22.67;;;13.40;;
20511;SDS011;10414;52.074;5.126;2022-11-12T02:15:25;21.27;;;13.07;;
20511;SDS011;10414;52.074;5.126;2022-11-12T02:17:52;21.77;;;13.35;;
20511;SDS011;10414;52.074;5.126;2022-11-12T02:20:19;19.25;;;12.27;;
20511;SDS011;10414;52.074;5.126;2022-11-12T02:22:48;19.77;;;12.82;;
20511;SDS011;10414;52.074;5.126;2022-11-12T02:25:15;23.98;;;12.77;;
20511;SDS011;10414;52.074;5.126;2022-11-12T02:27:44;21.40;;;12.88;;
20511;SDS011;10414;52.074;5.126;2022-11-12T02:30:15;21.10;;;13.55;;
20511;SDS011;10414;52.074;5.126;2022-11-12T02:32:43;22.40;;;12.73;;
20511;SDS011;10414;52.074;5.126;2022-11-12T02:35:10;20.92;;;13.18;;
20511;SDS011;10414;52.074;5.126;2022-11-12T02:37:37;22.10;;;12.77;;
20511;SDS011;10414;52.074;5.126;2022-11-12T02:40:07;22.80;;;12.70;;
20511;SDS011;10414;52.074;5.126;2022-11-12T02:42:35;25.20;;;15.23;;
20511;SDS011;10414;52.074;5.126;2022-11-12T02:45:02;24.77;;;14.68;;
20511;SDS011;10414;52.074;5.126;2022-11-12T02:47:29;21.23;;;13.93;;
20511;SDS011;10414;52.074;5.126;2022-11-12T02:49:56;24.40;;;14.40;;
20511;SDS011;10414;52.074;5.126;2022-11-12T02:52:23;24.13;;;15.05;;
20511;SDS011;10414;52.074;5.126;2022-11-12T02:54:50;23.90;;;15.00;;
20511;SDS011;10414;52.074;5.126;2022-11-12T02:57:19;23.73;;;15.13;;
20511;SDS011;10414;52.074;5.126;2022-11-12T02:59:46;27.98;;;16.48;;
20511;SDS011;10414;52.074;5.126;2022-11-12T03:02:13;26.77;;;15.95;;
20511;SDS011;10414;52.074;5.126;2022-11-12T03:04:39;27.50;;;15.98;;
20511;SDS011;10414;52.074;5.126;2022-11-12T03:07:06;24.95;;;16.20;;
20511;SDS011;10414;52.074;5.126;2022-11-12T03:09:33;25.55;;;15.60;;
20511;SDS011;10414;52.074;5.126;2022-11-12T03:12:00;25.40;;;16.58;;
20511;SDS011;10414;52.074;5.126;2022-11-12T03:14:29;26.13;;;16.50;;
20511;SDS011;10414;52.074;5.126;2022-11-12T03:16:55;26.48;;;15.50;;
20511;SDS011;10414;52.074;5.126;2022-11-12T03:19:22;30.48;;;16.58;;
20511;SDS011;10414;52.074;5.126;2022-11-12T03:21:49;28.67;;;16.70;;
20511;SDS011;10414;52.074;5.126;2022-11-12T03:24:16;27.80;;;16.25;;
20511;SDS011;10414;52.074;5.126;2022-11-12T03:26:43;27.38;;;16.27;;
20511;SDS011;10414;52.074;5.126;2022-11-12T03:29:10;28.08;;;17.15;;
20511;SDS011;10414;52.074;5.126;2022-11-12T03:31:39;30.63;;;17.00;;
20511;SDS011;10414;52.074;5.126;2022-11-12T03:34:06;29.38;;;16.38;;
20511;SDS011;10414;52.074;5.126;2022-11-12T03:36:33;29.55;;;17.17;;
20511;SDS011;10414;52.074;5.126;2022-11-12T03:39:00;34.35;;;17.67;;
20511;SDS011;10414;52.074;5.126;2022-11-12T03:41:27;41.75;;;17.90;;
20511;SDS011;10414;52.074;5.126;2022-11-12T03:43:54;36.85;;;17.85;;
20511;SDS011;10414;52.074;5.126;2022-11-12T03:46:20;42.08;;;17.60;;
20511;SDS011;10414;52.074;5.126;2022-11-12T03:48:49;33.50;;;17.38;;
20511;SDS011;10414;52.074;5.126;2022-11-12T03:51:17;34.58;;;16.38;;
20511;SDS011;10414;52.074;5.126;2022-11-12T03:53:45;40.20;;;18.17;;
20511;SDS011;10414;52.074;5.126;2022-11-12T03:56:12;49.08;;;16.95;;
20511;SDS011;10414;52.074;5.126;2022-11-12T03:58:39;46.78;;;17.98;;
20511;SDS011;10414;52.074;5.126;2022-11-12T04:01:06;45.38;;;19.55;;
20511;SDS011;10414;52.074;5.126;2022-11-12T04:03:33;57.75;;;18.40;;
20511;SDS011;10414;52.074;5.126;2022-11-12T04:06:01;106.63;;;21.50;;
20511;SDS011;10414;52.074;5.126;2022-11-12T04:08:45;54.60;;;17.85;;
20511;SDS011;10414;52.074;5.126;2022-11-12T04:11:13;48.42;;;17.13;;
20511;SDS011;10414;52.074;5.126;2022-11-12T04:13:41;51.63;;;19.38;;
20511;SDS011;10414;52.074;5.126;2022-11-12T04:16:12;66.38;;;19.52;;
20511;SDS011;10414;52.074;5.126;2022-11-12T04:18:59;75.38;;;19.75;;
20511;SDS011;10414;52.074;5.126;2022-11-12T04:21:46;36.08;;;18.23;;
20511;SDS011;10414;52.074;5.126;2022-11-12T04:24:20;55.35;;;18.15;;
20511;SDS011;10414;52.074;5.126;2022-11-12T04:27:07;85.60;;;20.40;;
20511;SDS011;10414;52.074;5.126;2022-11-12T04:29:35;78.72;;;19.40;;
20511;SDS011;10414;52.074;5.126;2022-11-12T04:32:19;76.30;;;19.02;;
20511;SDS011;10414;52.074;5.126;2022-11-12T04:34:46;81.22;;;19.20;;
20511;SDS011;10414;52.074;5.126;2022-11-12T04:37:14;45.67;;;17.13;;
20511;SDS011;10414;52.074;5.126;2022-11-12T04:39:41;75.32;;;21.48;;
20511;SDS011;10414;52.074;5.126;2022-11-12T04:42:08;39.83;;;17.73;;
20511;SDS011;10414;52.074;5.126;2022-11-12T04:44:53;50.22;;;17.30;;
20511;SDS011;10414;52.074;5.126;2022-11-12T04:47:28;52.05;;;17.75;;
20511;SDS011;10414;52.074;5.126;2022-11-12T04:49:57;37.38;;;18.83;;
20511;SDS011;10414;52.074;5.126;2022-11-12T04:52:26;73.57;;;18.33;;
20511;SDS011;10414;52.074;5.126;2022-11-12T04:54:54;106.17;;;21.53;;
20511;SDS011;10414;52.074;5.126;2022-11-12T04:57:21;29.13;;;17.45;;
20511;SDS011;10414;52.074;5.126;2022-11-12T04:59:48;33.10;;;16.48;;
20511;SDS011;10414;52.074;5.126;2022-11-12T05:02:16;47.28;;;18.55;;
20511;SDS011;10414;52.074;5.126;2022-11-12T05:04:43;31.95;;;17.27;;
20511;SDS011;10414;52.074;5.126;2022-11-12T05:07:10;83.43;;;19.48;;
20511;SDS011;10414;52.074;5.126;2022-11-12T05:09:39;61.85;;;19.35;;
20511;SDS011;10414;52.074;5.126;2022-11-12T05:12:09;43.05;;;16.42;;
20511;SDS011;10414;52.074;5.126;2022-11-12T05:14:36;74.18;;;18.83;;
20511;SDS011;10414;52.074;5.126;2022-11-12T05:17:03;114.93;;;20.40;;
20511;SDS011;10414;52.074;5.126;2022-11-12T05:19:31;51.65;;;17.80;;
20511;SDS011;10414;52.074;5.126;2022-11-12T05:21:59;59.25;;;18.25;;
20511;SDS011;10414;52.074;5.126;2022-11-12T05:24:32;77.93;;;21.25;;
20511;SDS011;10414;52.074;5.126;2022-11-12T05:27:03;41.45;;;19.92;;
20511;SDS011;10414;52.074;5.126;2022-11-12T05:29:31;113.93;;;21.80;;
20511;SDS011;10414;52.074;5.126;2022-11-12T05:31:58;43.38;;;17.77;;
20511;SDS011;10414;52.074;5.126;2022-11-12T05:34:25;37.35;;;16.42;;
20511;SDS011;10414;52.074;5.126;2022-11-12T05:36:52;32.78;;;17.95;;
20511;SDS011;10414;52.074;5.126;2022-11-12T05:39:19;30.80;;;16.33;;
20511;SDS011;10414;52.074;5.126;2022-11-12T05:41:46;33.08;;;16.40;;
20511;SDS011;10414;52.074;5.126;2022-11-12T05:44:14;30.70;;;16.25;;
20511;SDS011;10414;52.074;5.126;2022-11-12T05:46:42;41.05;;;18.23;;
20511;SDS011;10414;52.074;5.126;2022-11-12T05:49:09;29.50;;;16.73;;
20511;SDS011;10414;52.074;5.126;2022-11-12T05:51:36;35.53;;;16.75;;
20511;SDS011;10414;52.074;5.126;2022-11-12T05:54:03;45.75;;;17.92;;
20511;SDS011;10414;52.074;5.126;2022-11-12T05:56:30;40.03;;;16.75;;
20511;SDS011;10414;52.074;5.126;2022-11-12T05:58:57;30.33;;;17.15;;
20511;SDS011;10414;52.074;5.126;2022-11-12T06:01:27;66.43;;;18.25;;
20511;SDS011;10414;52.074;5.126;2022-11-12T06:03:54;32.60;;;16.90;;
20511;SDS011;10414;52.074;5.126;2022-11-12T06:06:21;26.40;;;15.57;;
20511;SDS011;10414;52.074;5.126;2022-11-12T06:08:48;26.48;;;14.35;;
20511;SDS011;10414;52.074;5.126;2022-11-12T06:11:15;36.42;;;14.95;;
20511;SDS011;10414;52.074;5.126;2022-11-12T06:13:42;35.75;;;17.15;;
20511;SDS011;10414;52.074;5.126;2022-11-12T06:16:09;50.63;;;18.15;;
20511;SDS011;10414;52.074;5.126;2022-11-12T06:18:37;28.92;;;16.20;;
20511;SDS011;10414;52.074;5.126;2022-11-12T06:21:05;29.50;;;16.60;;
20511;SDS011;10414;52.074;5.126;2022-11-12T06:23:46;26.75;;;16.75;;
20511;SDS011;10414;52.074;5.126;2022-11-12T06:26:15;29.25;;;16.52;;
20511;SDS011;10414;52.074;5.126;2022-11-12T06:28:43;27.45;;;16.95;;
20511;SDS011;10414;52.074;5.126;2022-11-12T06:31:12;33.55;;;17.65;;
20511;SDS011;10414;52.074;5.126;2022-11-12T06:33:41;29.58;;;17.40;;
20511;SDS011;10414;52.074;5.126;2022-11-12T06:36:10;33.42;;;19.88;;
20511;SDS011;10414;52.074;5.126;2022-11-12T06:38:39;28.02;;;17.73;;
20511;SDS011;10414;52.074;5.126;2022-11-12T06:41:07;28.45;;;16.85;;
20511;SDS011;10414;52.074;5.126;2022-11-12T06:43:36;29.38;;;16.58;;
20511;SDS011;10414;52.074;5.126;2022-11-12T06:46:13;27.25;;;17.00;;
20511;SDS011;10414;52.074;5.126;2022-11-12T06:48:42;30.60;;;17.17;;
20511;SDS011;10414;52.074;5.126;2022-11-12T06:51:10;28.02;;;16.83;;
20511;SDS011;10414;52.074;5.126;2022-11-12T06:53:43;27.58;;;16.77;;
20511;SDS011;10414;52.074;5.126;2022-11-12T06:56:11;27.83;;;16.90;;
20511;SDS011;10414;52.074;5.126;2022-11-12T06:58:41;26.20;;;15.18;;
20511;SDS011;10414;52.074;5.126;2022-11-12T07:01:10;28.05;;;17.38;;
20511;SDS011;10414;52.074;5.126;2022-11-12T07:03:40;27.00;;;15.95;;
20511;SDS011;10414;52.074;5.126;2022-11-12T07:06:11;27.77;;;16.02;;
20511;SDS011;10414;52.074;5.126;2022-11-12T07:08:42;30.10;;;16.17;;
20511;SDS011;10414;52.074;5.126;2022-11-12T07:11:09;29.95;;;17.38;;
20511;SDS011;10414;52.074;5.126;2022-11-12T07:13:37;26.15;;;16.17;;
20511;SDS011;10414;52.074;5.126;2022-11-12T07:16:05;23.95;;;15.25;;
20511;SDS011;10414;52.074;5.126;2022-11-12T07:18:35;25.40;;;16.33;;
20511;SDS011;10414;52.074;5.126;2022-11-12T07:21:04;28.77;;;16.73;;
20511;SDS011;10414;52.074;5.126;2022-11-12T07:23:33;23.15;;;15.32;;
20511;SDS011;10414;52.074;5.126;2022-11-12T07:26:02;28.75;;;16.13;;
20511;SDS011;10414;52.074;5.126;2022-11-12T07:28:30;27.60;;;16.08;;
20511;SDS011;10414;52.074;5.126;2022-11-12T07:30:58;27.45;;;16.48;;
20511;SDS011;10414;52.074;5.126;2022-11-12T07:33:26;29.38;;;17.13;;
20511;SDS011;10414;52.074;5.126;2022-11-12T07:35:58;26.80;;;16.58;;
20511;SDS011;10414;52.074;5.126;2022-11-12T07:38:27;28.55;;;16.52;;
20511;SDS011;10414;52.074;5.126;2022-11-12T07:40:58;26.47;;;16.17;;
20511;SDS011;10414;52.074;5.126;2022-11-12T07:43:27;31.95;;;17.70;;
20511;SDS011;10414;52.074;5.126;2022-11-12T07:45:56;26.42;;;16.48;;
20511;SDS011;10414;52.074;5.126;2022-11-12T07:48:24;26.03;;;16.93;;
20511;SDS011;10414;52.074;5.126;2022-11-12T07:50:51;36.22;;;19.75;;
20511;SDS011;10414;52.074;5.126;2022-11-12T07:53:24;30.17;;;19.38;;
20511;SDS011;10414;52.074;5.126;2022-11-12T07:55:53;28.67;;;17.48;;
20511;SDS011;10414;52.074;5.126;2022-11-12T07:58:21;22.88;;;14.50;;
20511;SDS011;10414;52.074;5.126;2022-11-12T08:00:48;22.33;;;13.52;;
20511;SDS011;10414;52.074;5.126;2022-11-12T08:03:15;17.75;;;11.40;;
20511;SDS011;10414;52.074;5.126;2022-11-12T08:05:43;16.42;;;10.63;;
20511;SDS011;10414;52.074;5.126;2022-11-12T08:08:10;16.58;;;9.35;;
20511;SDS011;10414;52.074;5.126;2022-11-12T08:10:37;15.05;;;8.90;;
20511;SDS011;10414;52.074;5.126;2022-11-12T08:13:05;15.40;;;8.88;;
20511;SDS011;10414;52.074;5.126;2022-11-12T08:15:32;11.82;;;8.15;;
20511;SDS011;10414;52.074;5.126;2022-11-12T08:17:59;13.35;;;8.70;;
20511;SDS011;10414;52.074;5.126;2022-11-12T08:20:26;13.02;;;8.15;;
20511;SDS011;10414;52.074;5.126;2022-11-12T08:22:53;11.45;;;8.48;;
20511;SDS011;10414;52.074;5.126;2022-11-12T08:25:24;12.82;;;7.88;;
20511;SDS011;10414;52.074;5.126;2022-11-12T08:27:54;11.32;;;7.82;;
20511;SDS011;10414;52.074;5.126;2022-11-12T08:30:23;11.70;;;7.88;;
20511;SDS011;10414;52.074;5.126;2022-11-12T08:32:54;10.65;;;7.72;;
20511;SDS011;10414;52.074;5.126;2022-11-12T08:35:22;11.45;;;8.20;;
20511;SDS011;10414;52.074;5.126;2022-11-12T08:37:49;13.30;;;8.45;;
20511;SDS011;10414;52.074;5.126;2022-11-12T08:40:16;11.82;;;7.95;;
20511;SDS011;10414;52.074;5.126;2022-11-12T08:42:43;12.52;;;8.13;;
20511;SDS011;10414;52.074;5.126;2022-11-12T08:45:10;11.40;;;7.88;;
20511;SDS011;10414;52.074;5.126;2022-11-12T08:47:39;12.05;;;7.45;;
20511;SDS011;10414;52.074;5.126;2022-11-12T08:50:06;12.10;;;7.90;;
20511;SDS011;10414;52.074;5.126;2022-11-12T08:52:34;12.30;;;7.70;;
20511;SDS011;10414;52.074;5.126;2022-11-12T08:55:01;10.13;;;7.43;;
20511;SDS011;10414;52.074;5.126;2022-11-12T08:57:27;12.43;;;8.25;;
20511;SDS011;10414;52.074;5.126;2022-11-12T08:59:54;11.20;;;7.60;;
20511;SDS011;10414;52.074;5.126;2022-11-12T09:02:21;10.75;;;7.95;;
20511;SDS011;10414;52.074;5.126;2022-11-12T09:04:50;11.73;;;7.63;;
20511;SDS011;10414;52.074;5.126;2022-11-12T09:07:16;13.27;;;8.13;;
20511;SDS011;10414;52.074;5.126;2022-11-12T09:09:43;12.18;;;7.95;;
20511;SDS011;10414;52.074;5.126;2022-11-12T09:12:10;12.07;;;7.57;;
20511;SDS011;10414;52.074;5.126;2022-11-12T09:14:43;10.95;;;7.93;;
20511;SDS011;10414;52.074;5.126;2022-11-12T09:17:10;12.40;;;7.75;;
20511;SDS011;10414;52.074;5.126;2022-11-12T09:19:37;11.93;;;8.25;;
20511;SDS011;10414;52.074;5.126;2022-11-12T09:22:06;11.30;;;7.65;;
20511;SDS011;10414;52.074;5.126;2022-11-12T09:24:33;11.77;;;7.68;;
20511;SDS011;10414;52.074;5.126;2022-11-12T09:27:00;13.40;;;7.85;;
20511;SDS011;10414;52.074;5.126;2022-11-12T09:29:27;11.38;;;7.90;;
20511;SDS011;10414;52.074;5.126;2022-11-12T09:31:54;13.25;;;8.52;;
20511;SDS011;10414;52.074;5.126;2022-11-12T09:34:23;12.15;;;7.97;;
20511;SDS011;10414;52.074;5.126;2022-11-12T09:36:50;10.43;;;7.18;;
20511;SDS011;10414;52.074;5.126;2022-11-12T09:39:18;12.18;;;7.75;;
20511;SDS011;10414;52.074;5.126;2022-11-12T09:41:45;10.32;;;7.00;;
20511;SDS011;10414;52.074;5.126;2022-11-12T09:44:13;13.30;;;7.18;;
20511;SDS011;10414;52.074;5.126;2022-11-12T09:46:44;9.85;;;7.25;;
20511;SDS011;10414;52.074;5.126;2022-11-12T09:49:16;11.65;;;6.72;;
20511;SDS011;10414;52.074;5.126;2022-11-12T09:51:47;10.15;;;7.43;;
20511;SDS011;10414;52.074;5.126;2022-11-12T09:54:20;10.90;;;7.30;;
20511;SDS011;10414;52.074;5.126;2022-11-12T09:56:49;10.65;;;7.25;;
20511;SDS011;10414;52.074;5.126;2022-11-12T09:59:17;10.50;;;7.28;;
20511;SDS011;10414;52.074;5.126;2022-11-12T10:01:51;10.90;;;7.10;;
20511;SDS011;10414;52.074;5.126;2022-11-12T10:04:28;10.77;;;7.65;;
20511;SDS011;10414;52.074;5.126;2022-11-12T10:07:25;10.65;;;7.55;;
20511;SDS011;10414;52.074;5.126;2022-11-12T10:10:00;10.27;;;7.38;;
20511;SDS011;10414;52.074;5.126;2022-11-12T10:12:37;11.70;;;7.18;;
20511;SDS011;10414;52.074;5.126;2022-11-12T10:18:22;11.52;;;7.07;;
20511;SDS011;10414;52.074;5.126;2022-11-12T10:20:58;8.80;;;6.45;;
20511;SDS011;10414;52.074;5.126;2022-11-12T10:23:35;12.05;;;6.82;;
20511;SDS011;10414;52.074;5.126;2022-11-12T10:26:10;11.40;;;6.38;;
20511;SDS011;10414;52.074;5.126;2022-11-12T10:28:41;10.43;;;6.35;;
20511;SDS011;10414;52.074;5.126;2022-11-12T10:31:13;9.20;;;6.40;;
20511;SDS011;10414;52.074;5.126;2022-11-12T10:33:42;8.88;;;6.20;;
20511;SDS011;10414;52.074;5.126;2022-11-12T10:36:23;9.95;;;6.60;;
20511;SDS011;10414;52.074;5.126;2022-11-12T10:38:54;10.18;;;6.35;;
20511;SDS011;10414;52.074;5.126;2022-11-12T10:41:24;11.02;;;5.93;;
20511;SDS011;10414;52.074;5.126;2022-11-12T10:43:53;11.35;;;6.78;;
20511;SDS011;10414;52.074;5.126;2022-11-12T10:46:26;10.35;;;6.75;;
20511;SDS011;10414;52.074;5.126;2022-11-12T10:48:56;13.73;;;6.80;;
20511;SDS011;10414;52.074;5.126;2022-11-12T10:51:27;11.60;;;7.03;;
20511;SDS011;10414;52.074;5.126;2022-11-12T10:56:25;11.70;;;7.00;;
20511;SDS011;10414;52.074;5.126;2022-11-12T10:59:10;11.00;;;7.30;;
20511;SDS011;10414;52.074;5.126;2022-11-12T11:01:41;12.23;;;7.22;;
20511;SDS011;10414;52.074;5.126;2022-11-12T11:04:21;10.68;;;7.40;;
20511;SDS011;10414;52.074;5.126;2022-11-12T11:06:58;10.18;;;6.75;;
20511;SDS011;10414;52.074;5.126;2022-11-12T11:09:28;10.70;;;6.90;;
20511;SDS011;10414;52.074;5.126;2022-11-12T11:11:57;9.40;;;6.15;;
20511;SDS011;10414;52.074;5.126;2022-11-12T11:14:33;11.63;;;6.30;;
20511;SDS011;10414;52.074;5.126;2022-11-12T11:17:03;11.52;;;6.50;;
20511;SDS011;10414;52.074;5.126;2022-11-12T11:19:37;8.70;;;6.28;;
20511;SDS011;10414;52.074;5.126;2022-11-12T11:22:09;9.73;;;6.90;;
20511;SDS011;10414;52.074;5.126;2022-11-12T11:27:45;10.77;;;6.90;;
20511;SDS011;10414;52.074;5.126;2022-11-12T11:30:21;11.45;;;6.80;;
20511;SDS011;10414;52.074;5.126;2022-11-12T11:35:45;8.80;;;6.40;;
20511;SDS011;10414;52.074;5.126;2022-11-12T11:38:31;12.27;;;6.72;;
20511;SDS011;10414;52.074;5.126;2022-11-12T11:41:25;11.25;;;6.20;;
20511;SDS011;10414;52.074;5.126;2022-11-12T11:44:10;11.18;;;5.78;;
20511;SDS011;10414;52.074;5.126;2022-11-12T11:49:46;9.88;;;6.20;;
20511;SDS011;10414;52.074;5.126;2022-11-12T11:52:43;10.93;;;6.50;;
20511;SDS011;10414;52.074;5.126;2022-11-12T11:55:24;10.35;;;6.68;;
20511;SDS011;10414;52.074;5.126;2022-11-12T12:00:50;7.65;;;5.70;;
20511;SDS011;10414;52.074;5.126;2022-11-12T12:03:27;9.75;;;6.00;;
20511;SDS011;10414;52.074;5.126;2022-11-12T12:06:05;11.57;;;6.90;;
20511;SDS011;10414;52.074;5.126;2022-11-12T12:08:45;10.32;;;5.72;;
20511;SDS011;10414;52.074;5.126;2022-11-12T12:11:25;11.07;;;6.00;;
20511;SDS011;10414;52.074;5.126;2022-11-12T12:16:59;12.27;;;6.47;;
20511;SDS011;10414;52.074;5.126;2022-11-12T12:19:34;12.60;;;6.90;;
20511;SDS011;10414;52.074;5.126;2022-11-12T12:22:12;10.52;;;6.75;;
20511;SDS011;10414;52.074;5.126;2022-11-12T12:24:44;10.70;;;6.78;;
20511;SDS011;10414;52.074;5.126;2022-11-12T12:27:15;10.75;;;7.43;;
20511;SDS011;10414;52.074;5.126;2022-11-12T12:29:47;10.20;;;6.30;;
20511;SDS011;10414;52.074;5.126;2022-11-12T12:32:20;11.00;;;6.88;;
20511;SDS011;10414;52.074;5.126;2022-11-12T12:34:55;12.27;;;7.13;;
20511;SDS011;10414;52.074;5.126;2022-11-12T12:37:29;14.65;;;8.73;;
20511;SDS011;10414;52.074;5.126;2022-11-12T12:40:03;12.95;;;8.52;;
20511;SDS011;10414;52.074;5.126;2022-11-12T12:42:41;15.38;;;8.80;;
20511;SDS011;10414;52.074;5.126;2022-11-12T12:45:23;13.77;;;9.35;;
20511;SDS011;10414;52.074;5.126;2022-11-12T12:48:00;14.50;;;9.32;;
20511;SDS011;10414;52.074;5.126;2022-11-12T12:50:31;14.57;;;8.88;;
20511;SDS011;10414;52.074;5.126;2022-11-12T12:53:02;13.88;;;8.48;;
20511;SDS011;10414;52.074;5.126;2022-11-12T12:58:17;15.63;;;9.15;;
20511;SDS011;10414;52.074;5.126;2022-11-12T13:00:51;13.35;;;8.77;;
20511;SDS011;10414;52.074;5.126;2022-11-12T13:06:15;14.18;;;8.75;;
20511;SDS011;10414;52.074;5.126;2022-11-12T13:08:49;14.93;;;7.80;;
20511;SDS011;10414;52.074;5.126;2022-11-12T13:17:48;11.48;;;7.15;;
20511;SDS011;10414;52.074;5.126;2022-11-12T13:20:30;10.57;;;7.07;;
20511;SDS011;10414;52.074;5.126;2022-11-12T13:23:00;11.15;;;6.18;;
20511;SDS011;10414;52.074;5.126;2022-11-12T13:25:28;11.35;;;5.80;;
20511;SDS011;10414;52.074;5.126;2022-11-12T13:28:03;9.38;;;5.93;;
20511;SDS011;10414;52.074;5.126;2022-11-12T13:33:32;9.45;;;5.78;;
20511;SDS011;10414;52.074;5.126;2022-11-12T13:38:51;9.55;;;5.60;;
20511;SDS011;10414;52.074;5.126;2022-11-12T13:41:20;9.32;;;5.90;;
20511;SDS011;10414;52.074;5.126;2022-11-12T13:44:03;8.70;;;5.25;;
20511;SDS011;10414;52.074;5.126;2022-11-12T13:46:32;9.80;;;5.32;;
20511;SDS011;10414;52.074;5.126;2022-11-12T13:49:00;10.32;;;5.43;;
20511;SDS011;10414;52.074;5.126;2022-11-12T13:51:43;10.05;;;5.40;;
20511;SDS011;10414;52.074;5.126;2022-11-12T13:54:29;8.63;;;5.30;;
20511;SDS011;10414;52.074;5.126;2022-11-12T14:00:09;8.35;;;5.40;;
20511;SDS011;10414;52.074;5.126;2022-11-12T14:02:48;9.38;;;5.40;;
20511;SDS011;10414;52.074;5.126;2022-11-12T14:05:18;7.72;;;4.13;;
20511;SDS011;10414;52.074;5.126;2022-11-12T14:07:51;7.65;;;4.13;;
20511;SDS011;10414;52.074;5.126;2022-11-12T14:10:31;6.55;;;3.65;;
20511;SDS011;10414;52.074;5.126;2022-11-12T14:16:12;7.68;;;3.78;;
20511;SDS011;10414;52.074;5.126;2022-11-12T14:21:56;8.38;;;4.38;;
20511;SDS011;10414;52.074;5.126;2022-11-12T14:24:26;7.00;;;4.07;;
20511;SDS011;10414;52.074;5.126;2022-11-12T14:26:53;9.25;;;4.50;;
20511;SDS011;10414;52.074;5.126;2022-11-12T14:29:21;7.80;;;4.38;;
20511;SDS011;10414;52.074;5.126;2022-11-12T14:31:48;9.38;;;4.55;;
20511;SDS011;10414;52.074;5.126;2022-11-12T14:34:26;7.22;;;3.92;;
20511;SDS011;10414;52.074;5.126;2022-11-12T14:36:54;7.78;;;4.00;;
20511;SDS011;10414;52.074;5.126;2022-11-12T14:39:22;7.47;;;4.20;;
20511;SDS011;10414;52.074;5.126;2022-11-12T14:41:52;7.75;;;3.95;;
20511;SDS011;10414;52.074;5.126;2022-11-12T14:44:22;8.68;;;4.68;;
20511;SDS011;10414;52.074;5.126;2022-11-12T14:46:53;7.60;;;4.32;;
20511;SDS011;10414;52.074;5.126;2022-11-12T14:49:26;8.55;;;4.43;;
20511;SDS011;10414;52.074;5.126;2022-11-12T14:52:02;6.90;;;4.32;;
20511;SDS011;10414;52.074;5.126;2022-11-12T14:54:34;8.32;;;4.38;;
20511;SDS011;10414;52.074;5.126;2022-11-12T14:57:08;7.75;;;4.40;;
20511;SDS011;10414;52.074;5.126;2022-11-12T14:59:42;9.75;;;4.85;;
20511;SDS011;10414;52.074;5.126;2022-11-12T15:02:11;8.43;;;4.88;;
20511;SDS011;10414;52.074;5.126;2022-11-12T15:04:40;8.55;;;5.03;;
20511;SDS011;10414;52.074;5.126;2022-11-12T15:07:21;10.32;;;5.60;;
20511;SDS011;10414;52.074;5.126;2022-11-12T15:09:50;10.23;;;4.88;;
20511;SDS011;10414;52.074;5.126;2022-11-12T15:12:20;9.45;;;5.43;;
20511;SDS011;10414;52.074;5.126;2022-11-12T15:14:49;10.27;;;5.15;;
20511;SDS011;10414;52.074;5.126;2022-11-12T15:17:22;13.38;;;5.90;;
20511;SDS011;10414;52.074;5.126;2022-11-12T15:19:58;11.85;;;6.18;;
20511;SDS011;10414;52.074;5.126;2022-11-12T15:22:27;10.25;;;6.15;;
20511;SDS011;10414;52.074;5.126;2022-11-12T15:24:55;11.25;;;6.20;;
20511;SDS011;10414;52.074;5.126;2022-11-12T15:27:36;11.13;;;6.25;;
20511;SDS011;10414;52.074;5.126;2022-11-12T15:32:43;12.25;;;6.80;;
20511;SDS011;10414;52.074;5.126;2022-11-12T15:35:30;13.15;;;6.53;;
20511;SDS011;10414;52.074;5.126;2022-11-12T15:37:59;14.05;;;6.55;;